sensor_id;sensor_type;location;lat;lon;timestamp;pressure;altitude;pressure_sealevel;temperature;humidity
25498;BME280;13406;53.380;7.226;2023-09-19T00:01:14;100617.44;;;15.44;100.00
25498;BME280;13406;53.380;7.226;2023-09-19T00:03:40;100707.56;;;16.20;100.00
25498;BME280;13406;53.380;7.226;2023-09-19T00:06:07;100730.97;;;16.26;100.00
25498;BME280;13406;53.380;7.226;2023-09-19T00:08:34;100690.56;;;15.61;100.00
25498;BME280;13406;53.380;7.226;2023-09-19T00:10:59;100619.59;;;15.30;100.00
25498;BME280;13406;53.380;7.226;2023-09-19T00:13:31;100624.63;;;15.38;100.00
25498;BME280;13406;53.380;7.226;2023-09-19T00:15:57;100702.44;;;15.36;100.00
25498;BME280;13406;53.380;7.226;2023-09-19T00:18:24;100635.78;;;15.07;100.00
25498;BME280;13406;53.380;7.226;2023-09-19T00:20:57;100619.88;;;14.75;100.00
25498;BME280;13406;53.380;7.226;2023-09-19T00:23:22;100709.13;;;15.46;100.00
25498;BME280;13406;53.380;7.226;2023-09-19T00:25:50;100649.63;;;14.99;100.00
25498;BME280;13406;53.380;7.226;2023-09-19T00:28:16;100697.97;;;15.30;100.00
25498;BME280;13406;53.380;7.226;2023-09-19T00:30:45;100756.97;;;15.57;100.00
25498;BME280;13406;53.380;7.226;2023-09-19T00:33:20;100761.09;;;15.48;100.00
25498;BME280;13406;53.380;7.226;2023-09-19T00:35:50;100670.28;;;14.81;100.00
25498;BME280;13406;53.380;7.226;2023-09-19T00:38:16;100727.16;;;15.10;100.00
25498;BME280;13406;53.380;7.226;2023-09-19T00:40:44;100763.88;;;15.41;100.00
25498;BME280;13406;53.380;7.226;2023-09-19T00:43:10;100775.63;;;15.35;100.00
25498;BME280;13406;53.380;7.226;2023-09-19T00:45:36;100784.56;;;15.47;100.00
25498;BME280;13406;53.380;7.226;2023-09-19T00:48:04;100740.94;;;15.20;100.00
25498;BME280;13406;53.380;7.226;2023-09-19T00:50:35;100787.63;;;15.39;100.00
25498;BME280;13406;53.380;7.226;2023-09-19T00:53:01;100785.94;;;15.26;100.00
25498;BME280;13406;53.380;7.226;2023-09-19T00:55:30;100787.00;;;15.25;100.00
25498;BME280;13406;53.380;7.226;2023-09-19T00:57:58;100784.66;;;15.29;100.00
25498;BME280;13406;53.380;7.226;2023-09-19T01:00:24;100694.84;;;14.43;100.00
25498;BME280;13406;53.380;7.226;2023-09-19T01:02:50;100802.88;;;15.03;100.00
25498;BME280;13406;53.380;7.226;2023-09-19T01:05:15;100729.75;;;14.75;100.00
25498;BME280;13406;53.380;7.226;2023-09-19T01:07:41;100718.94;;;14.75;100.00
25498;BME280;13406;53.380;7.226;2023-09-19T01:10:12;100822.16;;;15.07;100.00
25498;BME280;13406;53.380;7.226;2023-09-19T01:15:37;100822.63;;;15.04;100.00
25498;BME280;13406;53.380;7.226;2023-09-19T01:23:22;100816.38;;;14.73;100.00
25498;BME280;13406;53.380;7.226;2023-09-19T01:28:51;100864.34;;;14.89;100.00
25498;BME280;13406;53.380;7.226;2023-09-19T01:31:19;100741.19;;;14.03;100.00
25498;BME280;13406;53.380;7.226;2023-09-19T01:34:00;100789.91;;;14.27;100.00
25498;BME280;13406;53.380;7.226;2023-09-19T01:36:34;100745.44;;;14.11;100.00
25498;BME280;13406;53.380;7.226;2023-09-19T01:39:06;100859.34;;;14.93;100.00
25498;BME280;13406;53.380;7.226;2023-09-19T01:41:48;100857.91;;;14.90;100.00
25498;BME280;13406;53.380;7.226;2023-09-19T01:44:31;100765.19;;;14.30;100.00
25498;BME280;13406;53.380;7.226;2023-09-19T01:47:04;100740.75;;;14.24;100.00
25498;BME280;13406;53.380;7.226;2023-09-19T01:49:45;100679.69;;;14.12;100.00
25498;BME280;13406;53.380;7.226;2023-09-19T01:52:13;100840.09;;;15.01;100.00
25498;BME280;13406;53.380;7.226;2023-09-19T01:54:48;100836.47;;;14.77;100.00
25498;BME280;13406;53.380;7.226;2023-09-19T01:57:22;100754.28;;;14.36;100.00
25498;BME280;13406;53.380;7.226;2023-09-19T02:00:06;100834.06;;;14.69;100.00
25498;BME280;13406;53.380;7.226;2023-09-19T02:02:40;100816.38;;;14.73;100.00
25498;BME280;13406;53.380;7.226;2023-09-19T02:05:06;100816.97;;;14.75;100.00
25498;BME280;13406;53.380;7.226;2023-09-19T02:07:31;100693.69;;;14.02;100.00
25498;BME280;13406;53.380;7.226;2023-09-19T02:10:00;100814.50;;;14.74;100.00
25498;BME280;13406;53.380;7.226;2023-09-19T02:12:26;100727.34;;;14.18;100.00
25498;BME280;13406;53.380;7.226;2023-09-19T02:14:52;100756.38;;;14.34;100.00
25498;BME280;13406;53.380;7.226;2023-09-19T02:17:18;100783.59;;;14.33;100.00
25498;BME280;13406;53.380;7.226;2023-09-19T02:19:44;100703.13;;;13.93;100.00
25498;BME280;13406;53.380;7.226;2023-09-19T02:22:10;100776.19;;;14.46;100.00
25498;BME280;13406;53.380;7.226;2023-09-19T02:24:38;100672.41;;;13.75;100.00
25498;BME280;13406;53.380;7.226;2023-09-19T02:27:04;100786.09;;;14.53;100.00
25498;BME280;13406;53.380;7.226;2023-09-19T02:29:30;100651.13;;;13.67;100.00
25498;BME280;13406;53.380;7.226;2023-09-19T02:31:56;100668.88;;;13.93;100.00
25498;BME280;13406;53.380;7.226;2023-09-19T02:34:22;100658.63;;;13.84;100.00
25498;BME280;13406;53.380;7.226;2023-09-19T02:36:48;100686.41;;;14.21;100.00
25498;BME280;13406;53.380;7.226;2023-09-19T02:39:13;100743.81;;;14.28;100.00
25498;BME280;13406;53.380;7.226;2023-09-19T02:41:39;100755.34;;;14.54;100.00
25498;BME280;13406;53.380;7.226;2023-09-19T02:44:05;100726.56;;;14.11;100.00
25498;BME280;13406;53.380;7.226;2023-09-19T02:46:33;100684.38;;;13.79;100.00
25498;BME280;13406;53.380;7.226;2023-09-19T02:48:59;100774.75;;;14.44;100.00
25498;BME280;13406;53.380;7.226;2023-09-19T02:51:24;100716.66;;;14.23;100.00
25498;BME280;13406;53.380;7.226;2023-09-19T02:53:50;100663.44;;;13.63;100.00
25498;BME280;13406;53.380;7.226;2023-09-19T02:56:18;100758.28;;;14.15;100.00
25498;BME280;13406;53.380;7.226;2023-09-19T02:58:44;100713.16;;;13.86;100.00
25498;BME280;13406;53.380;7.226;2023-09-19T03:01:12;100764.78;;;14.44;100.00
25498;BME280;13406;53.380;7.226;2023-09-19T03:03:38;100741.78;;;14.23;100.00
25498;BME280;13406;53.380;7.226;2023-09-19T03:06:07;100750.47;;;14.44;100.00
25498;BME280;13406;53.380;7.226;2023-09-19T03:08:35;100648.69;;;13.84;100.00
25498;BME280;13406;53.380;7.226;2023-09-19T03:11:05;100674.97;;;13.89;100.00
25498;BME280;13406;53.380;7.226;2023-09-19T03:13:36;100663.44;;;13.63;100.00
25498;BME280;13406;53.380;7.226;2023-09-19T03:16:04;100739.31;;;14.04;100.00
25498;BME280;13406;53.380;7.226;2023-09-19T03:18:31;100782.25;;;14.23;100.00
25498;BME280;13406;53.380;7.226;2023-09-19T03:20:57;100685.34;;;13.67;100.00
25498;BME280;13406;53.380;7.226;2023-09-19T03:23:26;100687.34;;;13.53;100.00
25498;BME280;13406;53.380;7.226;2023-09-19T03:25:51;100764.94;;;14.13;100.00
25498;BME280;13406;53.380;7.226;2023-09-19T03:28:18;100705.66;;;13.69;100.00
25498;BME280;13406;53.380;7.226;2023-09-19T03:30:44;100718.69;;;13.72;100.00
25498;BME280;13406;53.380;7.226;2023-09-19T03:33:09;100704.75;;;13.75;100.00
25498;BME280;13406;53.380;7.226;2023-09-19T03:35:37;100786.50;;;14.13;100.00
25498;BME280;13406;53.380;7.226;2023-09-19T03:38:04;100693.31;;;13.37;100.00
25498;BME280;13406;53.380;7.226;2023-09-19T03:40:30;100710.56;;;13.54;100.00
25498;BME280;13406;53.380;7.226;2023-09-19T03:42:55;100761.38;;;13.94;100.00
25498;BME280;13406;53.380;7.226;2023-09-19T03:45:20;100776.56;;;13.88;100.00
25498;BME280;13406;53.380;7.226;2023-09-19T03:47:46;100777.91;;;14.04;100.00
25498;BME280;13406;53.380;7.226;2023-09-19T03:50:15;100743.19;;;13.46;100.00
25498;BME280;13406;53.380;7.226;2023-09-19T03:52:45;100834.25;;;14.31;100.00
25498;BME280;13406;53.380;7.226;2023-09-19T03:55:10;100828.94;;;14.24;100.00
25498;BME280;13406;53.380;7.226;2023-09-19T03:57:36;100713.66;;;13.32;100.00
25498;BME280;13406;53.380;7.226;2023-09-19T04:00:02;100693.16;;;13.25;100.00
25498;BME280;13406;53.380;7.226;2023-09-19T04:02:30;100768.50;;;13.88;100.00
25498;BME280;13406;53.380;7.226;2023-09-19T04:04:58;100723.19;;;13.53;100.00
25498;BME280;13406;53.380;7.226;2023-09-19T04:07:24;100798.59;;;13.85;100.00
25498;BME280;13406;53.380;7.226;2023-09-19T04:09:51;100794.06;;;13.86;100.00
25498;BME280;13406;53.380;7.226;2023-09-19T04:12:18;100748.56;;;13.46;100.00
25498;BME280;13406;53.380;7.226;2023-09-19T04:14:44;100749.16;;;13.48;100.00
25498;BME280;13406;53.380;7.226;2023-09-19T04:17:10;100736.97;;;13.45;100.00
25498;BME280;13406;53.380;7.226;2023-09-19T04:19:36;100735.63;;;13.29;100.00
25498;BME280;13406;53.380;7.226;2023-09-19T04:22:02;100725.78;;;13.17;100.00
25498;BME280;13406;53.380;7.226;2023-09-19T04:24:28;100841.97;;;13.84;100.00
25498;BME280;13406;53.380;7.226;2023-09-19T04:26:53;100749.13;;;13.23;100.00
25498;BME280;13406;53.380;7.226;2023-09-19T04:29:19;100887.91;;;13.95;100.00
25498;BME280;13406;53.380;7.226;2023-09-19T04:31:45;100877.31;;;14.00;100.00
25498;BME280;13406;53.380;7.226;2023-09-19T04:34:11;100771.84;;;13.33;100.00
25498;BME280;13406;53.380;7.226;2023-09-19T04:36:42;100782.78;;;13.45;100.00
25498;BME280;13406;53.380;7.226;2023-09-19T04:39:08;100874.50;;;13.89;100.00
25498;BME280;13406;53.380;7.226;2023-09-19T04:41:36;100879.41;;;14.17;100.00
25498;BME280;13406;53.380;7.226;2023-09-19T04:44:04;100783.63;;;13.39;100.00
25498;BME280;13406;53.380;7.226;2023-09-19T04:46:30;100861.78;;;13.96;100.00
25498;BME280;13406;53.380;7.226;2023-09-19T04:48:55;100842.00;;;14.02;100.00
25498;BME280;13406;53.380;7.226;2023-09-19T04:51:20;100811.69;;;13.82;100.00
25498;BME280;13406;53.380;7.226;2023-09-19T04:53:46;100751.59;;;13.24;100.00
25498;BME280;13406;53.380;7.226;2023-09-19T04:56:13;100837.94;;;13.93;100.00
25498;BME280;13406;53.380;7.226;2023-09-19T04:58:38;100863.97;;;14.06;100.00
25498;BME280;13406;53.380;7.226;2023-09-19T05:01:04;100842.28;;;13.94;100.00
25498;BME280;13406;53.380;7.226;2023-09-19T05:03:29;100864.28;;;14.16;100.00
25498;BME280;13406;53.380;7.226;2023-09-19T05:05:55;100788.41;;;13.62;100.00
25498;BME280;13406;53.380;7.226;2023-09-19T05:08:20;100822.47;;;13.82;100.00
25498;BME280;13406;53.380;7.226;2023-09-19T05:10:47;100870.13;;;14.13;100.00
25498;BME280;13406;53.380;7.226;2023-09-19T05:13:14;100776.66;;;13.56;100.00
25498;BME280;13406;53.380;7.226;2023-09-19T05:15:39;100869.78;;;14.28;100.00
25498;BME280;13406;53.380;7.226;2023-09-19T05:18:05;100774.56;;;13.59;100.00
25498;BME280;13406;53.380;7.226;2023-09-19T05:20:31;100866.38;;;14.14;100.00
25498;BME280;13406;53.380;7.226;2023-09-19T05:23:06;100872.84;;;14.13;100.00
25498;BME280;13406;53.380;7.226;2023-09-19T05:25:39;100822.94;;;13.78;100.00
25498;BME280;13406;53.380;7.226;2023-09-19T05:28:06;100887.75;;;14.15;100.00
25498;BME280;13406;53.380;7.226;2023-09-19T05:30:33;100889.38;;;14.16;100.00
25498;BME280;13406;53.380;7.226;2023-09-19T05:32:58;100776.22;;;13.60;100.00
25498;BME280;13406;53.380;7.226;2023-09-19T05:35:25;100785.19;;;13.53;100.00
25498;BME280;13406;53.380;7.226;2023-09-19T05:37:51;100882.34;;;14.15;100.00
25498;BME280;13406;53.380;7.226;2023-09-19T05:40:18;100885.34;;;14.25;100.00
25498;BME280;13406;53.380;7.226;2023-09-19T05:42:44;100795.41;;;13.45;100.00
25498;BME280;13406;53.380;7.226;2023-09-19T05:45:10;100784.25;;;13.41;100.00
25498;BME280;13406;53.380;7.226;2023-09-19T05:47:42;100823.88;;;13.66;100.00
25498;BME280;13406;53.380;7.226;2023-09-19T05:50:12;100784.19;;;13.48;100.00
25498;BME280;13406;53.380;7.226;2023-09-19T05:52:40;100835.31;;;13.86;100.00
25498;BME280;13406;53.380;7.226;2023-09-19T05:55:09;100785.75;;;13.30;100.00
25498;BME280;13406;53.380;7.226;2023-09-19T05:57:36;100896.88;;;14.14;100.00
25498;BME280;13406;53.380;7.226;2023-09-19T06:00:05;100902.25;;;14.14;100.00
25498;BME280;13406;53.380;7.226;2023-09-19T06:02:36;100807.59;;;13.54;100.00
25498;BME280;13406;53.380;7.226;2023-09-19T06:05:01;100801.63;;;13.45;100.00
25498;BME280;13406;53.380;7.226;2023-09-19T06:07:27;100853.91;;;13.94;100.00
25498;BME280;13406;53.380;7.226;2023-09-19T06:10:01;100805.59;;;13.68;100.00
25498;BME280;13406;53.380;7.226;2023-09-19T06:12:27;100869.75;;;13.84;100.00
25498;BME280;13406;53.380;7.226;2023-09-19T06:14:53;100903.94;;;14.15;100.00
25498;BME280;13406;53.380;7.226;2023-09-19T06:17:19;100796.78;;;13.22;100.00
25498;BME280;13406;53.380;7.226;2023-09-19T06:19:45;100859.59;;;13.79;100.00
25498;BME280;13406;53.380;7.226;2023-09-19T06:22:15;100865.06;;;13.73;100.00
25498;BME280;13406;53.380;7.226;2023-09-19T06:24:43;100928.38;;;14.20;100.00
25498;BME280;13406;53.380;7.226;2023-09-19T06:27:08;100933.13;;;14.43;100.00
25498;BME280;13406;53.380;7.226;2023-09-19T06:29:34;100912.22;;;14.14;100.00
25498;BME280;13406;53.380;7.226;2023-09-19T06:31:59;100925.81;;;14.25;100.00
25498;BME280;13406;53.380;7.226;2023-09-19T06:34:24;100945.59;;;14.44;100.00
25498;BME280;13406;53.380;7.226;2023-09-19T06:36:51;100821.91;;;13.48;100.00
25498;BME280;13406;53.380;7.226;2023-09-19T06:39:17;100926.66;;;14.26;100.00
25498;BME280;13406;53.380;7.226;2023-09-19T06:41:42;100935.72;;;14.32;100.00
25498;BME280;13406;53.380;7.226;2023-09-19T06:44:07;100946.50;;;14.38;100.00
25498;BME280;13406;53.380;7.226;2023-09-19T06:46:34;100939.31;;;14.25;100.00
25498;BME280;13406;53.380;7.226;2023-09-19T06:49:01;100938.66;;;14.30;100.00
25498;BME280;13406;53.380;7.226;2023-09-19T06:51:31;100853.75;;;13.89;100.00
25498;BME280;13406;53.380;7.226;2023-09-19T06:53:57;100836.50;;;13.65;100.00
25498;BME280;13406;53.380;7.226;2023-09-19T06:56:23;100890.22;;;14.17;100.00
25498;BME280;13406;53.380;7.226;2023-09-19T06:58:50;100876.50;;;14.18;100.00
25498;BME280;13406;53.380;7.226;2023-09-19T07:01:15;100907.28;;;14.36;100.00
25498;BME280;13406;53.380;7.226;2023-09-19T07:03:41;100901.81;;;14.17;100.00
25498;BME280;13406;53.380;7.226;2023-09-19T07:06:06;100899.00;;;14.31;100.00
25498;BME280;13406;53.380;7.226;2023-09-19T07:08:34;100913.78;;;14.28;100.00
25498;BME280;13406;53.380;7.226;2023-09-19T07:10:59;100826.50;;;13.72;100.00
25498;BME280;13406;53.380;7.226;2023-09-19T07:13:25;100906.81;;;14.39;100.00
25498;BME280;13406;53.380;7.226;2023-09-19T07:15:50;100905.31;;;14.43;100.00
25498;BME280;13406;53.380;7.226;2023-09-19T07:18:17;100816.38;;;13.93;100.00
25498;BME280;13406;53.380;7.226;2023-09-19T07:20:44;100833.19;;;13.88;100.00
25498;BME280;13406;53.380;7.226;2023-09-19T07:23:19;100832.16;;;13.64;100.00
25498;BME280;13406;53.380;7.226;2023-09-19T07:25:46;100931.41;;;14.56;100.00
25498;BME280;13406;53.380;7.226;2023-09-19T07:28:11;100918.38;;;14.46;100.00
25498;BME280;13406;53.380;7.226;2023-09-19T07:30:37;100933.69;;;14.52;100.00
25498;BME280;13406;53.380;7.226;2023-09-19T07:33:03;100818.63;;;13.71;100.00
25498;BME280;13406;53.380;7.226;2023-09-19T07:35:30;100939.66;;;14.36;100.00
25498;BME280;13406;53.380;7.226;2023-09-19T07:37:56;100902.50;;;14.38;100.00
25498;BME280;13406;53.380;7.226;2023-09-19T07:40:26;100913.31;;;14.31;100.00
25498;BME280;13406;53.380;7.226;2023-09-19T07:42:57;100862.56;;;14.03;100.00
25498;BME280;13406;53.380;7.226;2023-09-19T07:45:28;100903.06;;;14.40;100.00
25498;BME280;13406;53.380;7.226;2023-09-19T07:47:55;100941.91;;;14.39;100.00
25498;BME280;13406;53.380;7.226;2023-09-19T07:50:20;100819.94;;;13.62;100.00
25498;BME280;13406;53.380;7.226;2023-09-19T07:52:47;100935.41;;;14.46;100.00
25498;BME280;13406;53.380;7.226;2023-09-19T07:55:13;100882.63;;;14.32;100.00
25498;BME280;13406;53.380;7.226;2023-09-19T07:57:42;100951.06;;;14.63;100.00
25498;BME280;13406;53.380;7.226;2023-09-19T08:00:08;100889.66;;;14.33;100.00
25498;BME280;13406;53.380;7.226;2023-09-19T08:02:35;100840.13;;;14.02;100.00
25498;BME280;13406;53.380;7.226;2023-09-19T08:05:03;100820.00;;;14.05;100.00
25498;BME280;13406;53.380;7.226;2023-09-19T08:07:32;100822.84;;;14.10;100.00
25498;BME280;13406;53.380;7.226;2023-09-19T08:09:57;100849.72;;;14.23;100.00
25498;BME280;13406;53.380;7.226;2023-09-19T08:12:24;100919.72;;;14.62;100.00
25498;BME280;13406;53.380;7.226;2023-09-19T08:14:49;100791.66;;;13.71;100.00
25498;BME280;13406;53.380;7.226;2023-09-19T08:17:15;100866.72;;;14.42;100.00
25498;BME280;13406;53.380;7.226;2023-09-19T08:19:41;100867.44;;;14.56;100.00
25498;BME280;13406;53.380;7.226;2023-09-19T08:22:07;100848.66;;;14.43;100.00
25498;BME280;13406;53.380;7.226;2023-09-19T08:24:35;100893.16;;;14.77;100.00
25498;BME280;13406;53.380;7.226;2023-09-19T08:27:01;100896.47;;;14.98;100.00
25498;BME280;13406;53.380;7.226;2023-09-19T08:29:30;100834.59;;;14.59;100.00
25498;BME280;13406;53.380;7.226;2023-09-19T08:31:56;100843.97;;;14.57;100.00
25498;BME280;13406;53.380;7.226;2023-09-19T08:34:23;100871.06;;;14.87;100.00
25498;BME280;13406;53.380;7.226;2023-09-19T08:36:53;100850.84;;;14.89;100.00
25498;BME280;13406;53.380;7.226;2023-09-19T08:39:25;100825.59;;;14.65;100.00
25498;BME280;13406;53.380;7.226;2023-09-19T08:42:00;100887.66;;;15.21;100.00
25498;BME280;13406;53.380;7.226;2023-09-19T08:44:29;100829.53;;;15.00;100.00
25498;BME280;13406;53.380;7.226;2023-09-19T08:47:04;100878.66;;;15.38;100.00
25498;BME280;13406;53.380;7.226;2023-09-19T08:52:41;100861.41;;;15.40;100.00
25498;BME280;13406;53.380;7.226;2023-09-19T08:55:12;100794.63;;;14.98;100.00
25498;BME280;13406;53.380;7.226;2023-09-19T08:57:38;100869.41;;;15.46;100.00
25498;BME280;13406;53.380;7.226;2023-09-19T09:00:08;100845.09;;;15.46;100.00
25498;BME280;13406;53.380;7.226;2023-09-19T09:02:40;100856.41;;;15.55;100.00
25498;BME280;13406;53.380;7.226;2023-09-19T09:05:09;100851.94;;;15.60;100.00
25498;BME280;13406;53.380;7.226;2023-09-19T09:07:40;100845.47;;;15.62;100.00
25498;BME280;13406;53.380;7.226;2023-09-19T09:10:06;100709.59;;;14.89;100.00
25498;BME280;13406;53.380;7.226;2023-09-19T09:12:32;100830.97;;;15.74;100.00
25498;BME280;13406;53.380;7.226;2023-09-19T09:15:00;100826.50;;;15.92;100.00
25498;BME280;13406;53.380;7.226;2023-09-19T09:17:26;100809.56;;;15.85;100.00
25498;BME280;13406;53.380;7.226;2023-09-19T09:19:54;100806.75;;;15.91;100.00
25498;BME280;13406;53.380;7.226;2023-09-19T09:22:20;100763.78;;;15.48;100.00
25498;BME280;13406;53.380;7.226;2023-09-19T09:24:58;100795.13;;;15.37;100.00
25498;BME280;13406;53.380;7.226;2023-09-19T09:27:23;100789.84;;;15.30;100.00
25498;BME280;13406;53.380;7.226;2023-09-19T09:29:51;100751.13;;;15.18;100.00
25498;BME280;13406;53.380;7.226;2023-09-19T09:34:44;100738.56;;;15.24;100.00
25498;BME280;13406;53.380;7.226;2023-09-19T09:37:13;100705.66;;;15.15;100.00
25498;BME280;13406;53.380;7.226;2023-09-19T09:39:40;100694.88;;;15.38;100.00
25498;BME280;13406;53.380;7.226;2023-09-19T09:42:05;100669.06;;;15.31;100.00
25498;BME280;13406;53.380;7.226;2023-09-19T09:44:32;100739.13;;;15.68;100.00
25498;BME280;13406;53.380;7.226;2023-09-19T09:46:57;100708.78;;;15.30;100.00
25498;BME280;13406;53.380;7.226;2023-09-19T09:49:48;100671.75;;;15.31;100.00
25498;BME280;13406;53.380;7.226;2023-09-19T09:52:19;100782.25;;;16.21;100.00
25498;BME280;13406;53.380;7.226;2023-09-19T09:55:04;100689.03;;;15.65;100.00
25498;BME280;13406;53.380;7.226;2023-09-19T09:57:34;100688.91;;;15.60;100.00
25498;BME280;13406;53.380;7.226;2023-09-19T10:00:00;100772.97;;;16.29;100.00
25498;BME280;13406;53.380;7.226;2023-09-19T10:02:38;100722.75;;;16.10;100.00
25498;BME280;13406;53.380;7.226;2023-09-19T10:05:20;100664.44;;;15.67;100.00
25498;BME280;13406;53.380;7.226;2023-09-19T10:07:49;100743.16;;;16.41;100.00
25498;BME280;13406;53.380;7.226;2023-09-19T10:10:35;100632.50;;;15.52;100.00
25498;BME280;13406;53.380;7.226;2023-09-19T10:13:08;100637.88;;;15.64;100.00
25498;BME280;13406;53.380;7.226;2023-09-19T10:15:38;100615.19;;;15.65;100.00
25498;BME280;13406;53.380;7.226;2023-09-19T10:18:06;100629.78;;;15.64;100.00
25498;BME280;13406;53.380;7.226;2023-09-19T10:20:34;100606.84;;;15.66;100.00
25498;BME280;13406;53.380;7.226;2023-09-19T10:23:12;100607.16;;;15.93;100.00
25498;BME280;13406;53.380;7.226;2023-09-19T10:25:43;100604.69;;;16.03;100.00
25498;BME280;13406;53.380;7.226;2023-09-19T10:28:12;100579.69;;;15.85;100.00
25498;BME280;13406;53.380;7.226;2023-09-19T10:30:41;100691.44;;;16.54;100.00
25498;BME280;13406;53.380;7.226;2023-09-19T10:33:14;100679.59;;;16.43;100.00
25498;BME280;13406;53.380;7.226;2023-09-19T10:35:45;100579.81;;;15.78;100.00
25498;BME280;13406;53.380;7.226;2023-09-19T10:38:12;100583.06;;;15.92;100.00
25498;BME280;13406;53.380;7.226;2023-09-19T10:40:38;100654.44;;;16.60;100.00
25498;BME280;13406;53.380;7.226;2023-09-19T10:43:13;100538.72;;;15.93;100.00
25498;BME280;13406;53.380;7.226;2023-09-19T10:45:44;100648.59;;;16.80;100.00
25498;BME280;13406;53.380;7.226;2023-09-19T10:48:09;100591.41;;;16.76;100.00
25498;BME280;13406;53.380;7.226;2023-09-19T10:50:44;100529.00;;;16.88;100.00
25498;BME280;13406;53.380;7.226;2023-09-19T10:53:11;100572.06;;;17.62;100.00
25498;BME280;13406;53.380;7.226;2023-09-19T10:55:37;100450.22;;;16.89;100.00
25498;BME280;13406;53.380;7.226;2023-09-19T10:58:05;100544.88;;;17.57;100.00
25498;BME280;13406;53.380;7.226;2023-09-19T11:00:53;100515.34;;;17.38;100.00
25498;BME280;13406;53.380;7.226;2023-09-19T11:03:21;100521.63;;;17.44;100.00
25498;BME280;13406;53.380;7.226;2023-09-19T11:09:01;100471.50;;;17.47;100.00
25498;BME280;13406;53.380;7.226;2023-09-19T11:11:48;100476.94;;;17.47;100.00
25498;BME280;13406;53.380;7.226;2023-09-19T11:30:41;100252.72;;;17.15;100.00
25498;BME280;13406;53.380;7.226;2023-09-19T11:33:28;100282.28;;;17.49;100.00
25498;BME280;13406;53.380;7.226;2023-09-19T11:46:26;100315.31;;;17.13;100.00
25498;BME280;13406;53.380;7.226;2023-09-19T11:48:53;100392.34;;;17.72;100.00
25498;BME280;13406;53.380;7.226;2023-09-19T11:51:21;100271.47;;;16.72;100.00
25498;BME280;13406;53.380;7.226;2023-09-19T11:53:53;100221.59;;;16.68;100.00
25498;BME280;13406;53.380;7.226;2023-09-19T11:56:21;100273.63;;;17.20;100.00
25498;BME280;13406;53.380;7.226;2023-09-19T11:58:50;100248.38;;;17.46;100.00
25498;BME280;13406;53.380;7.226;2023-09-19T12:01:50;100336.59;;;18.23;100.00
25498;BME280;13406;53.380;7.226;2023-09-19T12:04:17;100359.63;;;18.16;100.00
25498;BME280;13406;53.380;7.226;2023-09-19T12:06:56;100321.69;;;18.26;100.00
25498;BME280;13406;53.380;7.226;2023-09-19T12:09:22;100294.59;;;17.61;100.00
25498;BME280;13406;53.380;7.226;2023-09-19T12:11:49;100335.78;;;17.58;100.00
25498;BME280;13406;53.380;7.226;2023-09-19T12:14:22;100256.56;;;17.19;100.00
25498;BME280;13406;53.380;7.226;2023-09-19T12:16:56;100368.13;;;17.92;100.00
25498;BME280;13406;53.380;7.226;2023-09-19T12:19:23;100255.47;;;17.20;100.00
25498;BME280;13406;53.380;7.226;2023-09-19T12:22:02;100369.69;;;17.83;100.00
25498;BME280;13406;53.380;7.226;2023-09-19T12:24:32;100385.91;;;17.78;100.00
25498;BME280;13406;53.380;7.226;2023-09-19T12:27:02;100262.97;;;16.86;100.00
25498;BME280;13406;53.380;7.226;2023-09-19T12:29:30;100259.94;;;17.04;100.00
25498;BME280;13406;53.380;7.226;2023-09-19T12:31:58;100354.59;;;17.65;100.00
25498;BME280;13406;53.380;7.226;2023-09-19T12:34:28;100359.44;;;17.63;100.00
25498;BME280;13406;53.380;7.226;2023-09-19T12:37:14;100303.47;;;16.98;100.00
25498;BME280;13406;53.380;7.226;2023-09-19T12:40:04;100344.69;;;17.00;100.00
25498;BME280;13406;53.380;7.226;2023-09-19T12:42:40;100399.97;;;17.48;100.00
25498;BME280;13406;53.380;7.226;2023-09-19T12:45:07;100305.31;;;16.92;100.00
25498;BME280;13406;53.380;7.226;2023-09-19T12:47:34;100372.94;;;17.58;100.00
25498;BME280;13406;53.380;7.226;2023-09-19T12:50:07;100361.59;;;17.34;100.00
25498;BME280;13406;53.380;7.226;2023-09-19T12:52:48;100405.25;;;17.65;100.00
25498;BME280;13406;53.380;7.226;2023-09-19T12:55:30;100331.72;;;17.02;100.00
25498;BME280;13406;53.380;7.226;2023-09-19T13:00:43;100326.66;;;17.10;100.00
25498;BME280;13406;53.380;7.226;2023-09-19T13:06:01;100392.38;;;17.50;100.00
25498;BME280;13406;53.380;7.226;2023-09-19T13:08:32;100290.69;;;16.93;100.00
25498;BME280;13406;53.380;7.226;2023-09-19T13:11:15;100364.59;;;17.65;100.00
25498;BME280;13406;53.380;7.226;2023-09-19T13:13:45;100275.63;;;17.02;100.00
25498;BME280;13406;53.380;7.226;2023-09-19T13:16:14;100402.91;;;17.73;100.00
25498;BME280;13406;53.380;7.226;2023-09-19T13:18:48;100391.22;;;17.68;100.00
25498;BME280;13406;53.380;7.226;2023-09-19T13:21:17;100280.16;;;16.97;100.00
25498;BME280;13406;53.380;7.226;2023-09-19T13:23:53;100296.34;;;17.13;100.00
25498;BME280;13406;53.380;7.226;2023-09-19T13:26:27;100389.09;;;17.75;100.00
25498;BME280;13406;53.380;7.226;2023-09-19T13:28:56;100376.31;;;17.70;100.00
25498;BME280;13406;53.380;7.226;2023-09-19T13:31:21;100339.09;;;17.33;100.00
25498;BME280;13406;53.380;7.226;2023-09-19T13:33:49;100364.59;;;17.37;100.00
25498;BME280;13406;53.380;7.226;2023-09-19T13:36:15;100263.84;;;16.91;100.00
25498;BME280;13406;53.380;7.226;2023-09-19T13:38:41;100387.16;;;17.70;100.00
25498;BME280;13406;53.380;7.226;2023-09-19T13:41:10;100330.97;;;17.66;100.00